createdAt,value
2023-03-11T00:01:08.056Z,106.97
2023-03-11T00:03:35.275Z,110.03
2023-03-11T00:06:02.647Z,96.68
2023-03-11T00:08:29.873Z,105.90
2023-03-11T00:10:59.049Z,117.95
2023-03-11T00:13:27.790Z,117.15
2023-03-11T00:15:56.418Z,101.03
2023-03-11T00:18:27.120Z,102.78
2023-03-11T00:20:55.442Z,91.07
2023-03-11T00:23:23.010Z,81.18
2023-03-11T00:25:50.286Z,86.88
2023-03-11T00:28:17.610Z,101.18
2023-03-11T00:30:45.806Z,90.60
2023-03-11T00:33:14.076Z,89.85
2023-03-11T00:35:41.373Z,97.72
2023-03-11T00:38:11.948Z,95.72
2023-03-11T00:40:39.465Z,132.15
2023-03-11T00:43:06.575Z,109.13
2023-03-11T00:45:34.142Z,88.90
2023-03-11T00:48:01.461Z,86.10
2023-03-11T00:50:33.353Z,94.05
2023-03-11T00:53:00.660Z,94.05
2023-03-11T00:55:37.365Z,79.13
2023-03-11T00:58:05.728Z,76.50
2023-03-11T01:00:33.158Z,72.25
2023-03-11T01:03:00.365Z,66.03
2023-03-11T01:05:29.864Z,65.68
2023-03-11T01:07:57.120Z,71.20
2023-03-11T01:10:24.552Z,79.70
2023-03-11T01:12:51.785Z,77.97
2023-03-11T01:15:22.746Z,83.93
2023-03-11T01:17:50.189Z,101.63
2023-03-11T01:20:17.810Z,104.82
2023-03-11T01:22:45.210Z,106.60
2023-03-11T01:25:14.033Z,107.97
2023-03-11T01:27:41.264Z,99.05
2023-03-11T01:30:18.980Z,96.30
2023-03-11T01:32:46.312Z,98.07
2023-03-11T01:35:15.219Z,80.57
2023-03-11T01:37:42.361Z,86.25
2023-03-11T01:40:14.246Z,77.35
2023-03-11T01:42:41.380Z,76.05
2023-03-11T01:45:36.663Z,79.50
2023-03-11T01:48:04.105Z,82.57
2023-03-11T01:50:35.170Z,84.00
2023-03-11T01:53:03.160Z,86.10
2023-03-11T01:55:33.112Z,90.85
2023-03-11T01:58:02.073Z,88.90
2023-03-11T02:00:29.257Z,85.72
2023-03-11T02:02:57.774Z,94.38
2023-03-11T02:05:28.453Z,91.97
2023-03-11T02:10:25.029Z,78.82
2023-03-11T02:12:52.874Z,85.13
2023-03-11T02:15:20.251Z,87.68
2023-03-11T02:17:47.470Z,89.00
2023-03-11T02:20:36.162Z,77.25
2023-03-11T02:23:03.412Z,74.85
2023-03-11T02:25:43.398Z,75.95
2023-03-11T02:28:12.026Z,83.40
2023-03-11T02:30:41.191Z,83.85
2023-03-11T02:33:08.727Z,79.35
2023-03-11T02:35:38.498Z,85.28
2023-03-11T02:38:05.645Z,78.40
2023-03-11T02:40:48.605Z,80.10
2023-03-11T02:43:17.700Z,75.28
2023-03-11T02:45:45.102Z,66.78
2023-03-11T02:48:12.205Z,75.45
2023-03-11T02:50:40.987Z,81.97
2023-03-11T02:53:08.217Z,82.45
2023-03-11T02:55:35.460Z,81.97
2023-03-11T02:58:04.444Z,85.70
2023-03-11T03:00:32.693Z,96.00
2023-03-11T03:02:59.887Z,100.65
2023-03-11T03:05:26.913Z,90.63
2023-03-11T03:07:54.104Z,110.50
2023-03-11T03:10:21.851Z,92.70
2023-03-11T03:12:49.087Z,98.38
2023-03-11T03:15:16.427Z,93.88
2023-03-11T03:17:43.833Z,92.53
2023-03-11T03:20:12.827Z,99.10
2023-03-11T03:22:41.142Z,106.15
2023-03-11T03:25:08.854Z,96.97
2023-03-11T03:27:36.296Z,91.60
2023-03-11T03:30:03.977Z,85.95
2023-03-11T03:32:31.525Z,68.97
2023-03-11T03:34:59.504Z,67.70
2023-03-11T03:37:27.493Z,63.03
2023-03-11T03:39:55.137Z,61.40
2023-03-11T03:42:22.508Z,57.13
2023-03-11T03:44:49.973Z,60.15
2023-03-11T03:47:17.218Z,58.72
2023-03-11T03:49:44.561Z,63.78
2023-03-11T03:52:12.001Z,61.90
2023-03-11T03:54:39.364Z,66.22
2023-03-11T03:57:06.693Z,73.50
2023-03-11T03:59:34.045Z,67.28
2023-03-11T04:02:01.412Z,70.45
2023-03-11T04:04:28.778Z,72.07
2023-03-11T04:06:55.920Z,75.05
2023-03-11T04:09:23.117Z,69.95
2023-03-11T04:11:52.806Z,71.13
2023-03-11T04:14:19.950Z,57.37
2023-03-11T04:16:47.115Z,63.10
2023-03-11T04:19:14.181Z,56.55
2023-03-11T04:21:41.401Z,60.83
2023-03-11T04:24:08.814Z,52.72
2023-03-11T04:26:35.829Z,53.97
2023-03-11T04:29:03.083Z,59.83
2023-03-11T04:31:30.135Z,57.65
2023-03-11T04:33:57.279Z,56.97
2023-03-11T04:36:24.367Z,57.25
2023-03-11T04:38:51.471Z,61.38
2023-03-11T04:41:18.567Z,61.03
2023-03-11T04:43:45.613Z,64.15
2023-03-11T04:46:12.763Z,63.10
2023-03-11T04:48:40.003Z,67.57
2023-03-11T04:51:07.651Z,55.40
2023-03-11T04:53:34.922Z,57.33
2023-03-11T04:56:02.215Z,58.22
2023-03-11T04:58:29.344Z,62.25
2023-03-11T05:00:56.529Z,61.78
2023-03-11T05:03:23.815Z,58.33
2023-03-11T05:05:53.054Z,56.35
2023-03-11T05:08:24.185Z,61.72
2023-03-11T05:10:53.025Z,68.50
2023-03-11T05:13:28.039Z,58.55
2023-03-11T05:15:55.474Z,65.25
2023-03-11T05:18:22.687Z,68.72
2023-03-11T05:20:49.743Z,76.72
2023-03-11T05:23:25.830Z,82.57
2023-03-11T05:25:53.094Z,86.68
2023-03-11T05:28:20.467Z,80.00
2023-03-11T05:30:59.887Z,66.72
2023-03-11T05:33:32.656Z,53.92
2023-03-11T05:36:07.775Z,56.75
2023-03-11T05:38:36.139Z,61.22
2023-03-11T05:41:03.315Z,67.03
2023-03-11T05:43:30.478Z,63.45
2023-03-11T05:46:00.813Z,67.50
2023-03-11T05:48:31.395Z,66.32
2023-03-11T05:53:26.830Z,78.03
2023-03-11T05:56:01.046Z,43.65
2023-03-11T05:58:29.132Z,46.88
2023-03-11T06:00:57.201Z,47.83
2023-03-11T06:03:24.706Z,53.65
2023-03-11T06:05:53.019Z,64.82
2023-03-11T06:08:21.206Z,71.13
2023-03-11T06:10:49.056Z,70.47
2023-03-11T06:13:24.054Z,68.60
2023-03-11T06:15:53.909Z,54.13
2023-03-11T06:18:24.480Z,59.88
2023-03-11T06:20:51.648Z,71.20
2023-03-11T06:23:24.357Z,70.78
2023-03-11T06:26:04.976Z,81.47
2023-03-11T06:31:10.716Z,63.20
2023-03-11T06:33:38.453Z,56.97
2023-03-11T06:36:06.213Z,62.60
2023-03-11T06:38:36.863Z,60.08
2023-03-11T06:41:05.346Z,73.35
2023-03-11T06:43:33.154Z,79.75
2023-03-11T06:46:00.904Z,95.68
2023-03-11T06:48:28.521Z,84.18
2023-03-11T06:50:59.422Z,76.45
2023-03-11T06:53:27.321Z,75.30
2023-03-11T06:56:04.205Z,78.63
2023-03-11T06:58:31.863Z,76.88
2023-03-11T07:01:10.624Z,82.38
2023-03-11T07:03:39.472Z,69.53
2023-03-11T07:06:07.232Z,54.45
2023-03-11T07:08:34.423Z,62.58
2023-03-11T07:11:06.207Z,68.80
2023-03-11T07:13:33.663Z,64.90
2023-03-11T07:16:08.538Z,75.45
2023-03-11T07:18:35.951Z,95.43
2023-03-11T07:21:10.471Z,104.40
2023-03-11T07:31:49.316Z,139.10
2023-03-11T07:34:16.643Z,123.25
2023-03-11T07:36:46.950Z,117.78
2023-03-11T07:39:16.514Z,91.50
2023-03-11T07:41:44.064Z,94.50
2023-03-11T07:44:12.808Z,92.25
2023-03-11T07:46:39.875Z,90.07
2023-03-11T07:49:07.694Z,80.60
2023-03-11T07:51:35.925Z,67.47
2023-03-11T07:54:03.333Z,53.42
2023-03-11T07:56:32.224Z,52.08
2023-03-11T07:59:00.229Z,57.30
2023-03-11T08:01:30.734Z,85.82
2023-03-11T08:06:31.559Z,63.70
2023-03-11T08:09:00.095Z,67.55
2023-03-11T08:11:27.651Z,61.85
2023-03-11T08:13:54.815Z,70.95
2023-03-11T08:16:22.600Z,78.05
2023-03-11T08:18:50.882Z,73.85
2023-03-11T08:21:23.630Z,68.82
2023-03-11T08:23:51.594Z,69.93
2023-03-11T08:26:21.588Z,73.88
2023-03-11T08:28:49.115Z,76.70
2023-03-11T08:31:17.676Z,77.82
2023-03-11T08:33:55.361Z,63.08
2023-03-11T08:36:22.742Z,62.22
2023-03-11T08:38:50.697Z,58.50
2023-03-11T08:41:18.123Z,67.15
2023-03-11T08:43:45.469Z,71.40
2023-03-11T08:46:22.168Z,75.38
2023-03-11T08:48:49.527Z,75.50
2023-03-11T08:51:20.793Z,86.05
2023-03-11T08:53:48.382Z,85.20
2023-03-11T08:56:15.786Z,82.40
2023-03-11T08:58:43.026Z,74.35
2023-03-11T09:01:11.115Z,67.00
2023-03-11T09:03:38.640Z,67.97
2023-03-11T09:06:08.041Z,70.20
2023-03-11T09:08:35.722Z,67.30
2023-03-11T09:11:03.121Z,63.50
2023-03-11T09:13:33.830Z,37.80
2023-03-11T09:18:29.661Z,13.18
2023-03-11T09:20:58.619Z,9.18
2023-03-11T09:23:33.442Z,8.40
2023-03-11T09:26:00.763Z,11.52
2023-03-11T09:28:28.043Z,10.63
2023-03-11T09:30:55.562Z,11.07
2023-03-11T09:33:26.022Z,6.07
2023-03-11T09:35:53.615Z,7.43
2023-03-11T09:38:23.451Z,8.57
2023-03-11T09:41:09.299Z,7.13
2023-03-11T09:43:43.013Z,6.00
2023-03-11T09:46:31.385Z,11.85
2023-03-11T09:49:24.792Z,6.07
2023-03-11T09:52:19.663Z,7.38
2023-03-11T09:54:56.174Z,8.75
2023-03-11T09:57:25.651Z,6.43
2023-03-11T09:59:53.145Z,9.25
2023-03-11T10:02:21.797Z,8.55
2023-03-11T10:04:55.104Z,8.57
2023-03-11T10:07:29.548Z,7.80
2023-03-11T10:09:57.915Z,7.68
2023-03-11T10:12:57.566Z,7.78
2023-03-11T10:15:39.054Z,8.75
2023-03-11T10:18:31.156Z,7.85
2023-03-11T10:21:25.712Z,6.75
2023-03-11T10:24:22.311Z,6.47
2023-03-11T10:26:55.720Z,6.63
2023-03-11T10:29:45.470Z,3.63
2023-03-11T10:32:53.145Z,4.97
2023-03-11T10:35:27.742Z,9.95
2023-03-11T10:37:58.107Z,6.60
2023-03-11T10:40:34.852Z,7.10
2023-03-11T10:43:12.669Z,7.93
2023-03-11T10:45:41.675Z,8.57
2023-03-11T10:48:12.786Z,10.25
2023-03-11T10:51:06.368Z,8.98
2023-03-11T10:53:33.733Z,12.35
2023-03-11T10:56:02.023Z,12.45
2023-03-11T10:58:32.395Z,10.45
2023-03-11T11:01:16.389Z,8.82
2023-03-11T11:03:44.564Z,14.15
2023-03-11T11:06:30.961Z,15.50
2023-03-11T11:09:08.104Z,11.43
2023-03-11T11:11:39.762Z,11.77
2023-03-11T11:14:14.971Z,17.42
2023-03-11T11:16:42.840Z,11.20
2023-03-11T11:19:14.045Z,12.23
2023-03-11T11:21:51.036Z,10.93
2023-03-11T11:24:29.452Z,10.93
2023-03-11T11:27:06.755Z,28.35
2023-03-11T11:29:42.359Z,27.17
2023-03-11T11:32:20.399Z,21.60
2023-03-11T11:35:05.583Z,19.80
2023-03-11T11:37:35.261Z,31.38
2023-03-11T11:40:27.812Z,17.73
2023-03-11T11:42:57.877Z,18.27
2023-03-11T11:45:36.095Z,27.42
2023-03-11T11:48:25.870Z,22.38
2023-03-11T11:50:54.756Z,22.08
2023-03-11T11:53:50.108Z,19.80
2023-03-11T11:56:23.752Z,15.95
2023-03-11T11:58:56.617Z,9.88
2023-03-11T12:01:57.318Z,12.57
2023-03-11T12:04:49.584Z,17.75
2023-03-11T12:07:46.036Z,22.83
2023-03-11T12:10:42.072Z,13.18
2023-03-11T12:13:43.164Z,19.42
2023-03-11T12:16:38.890Z,20.55
2023-03-11T12:19:13.061Z,20.67
2023-03-11T12:22:26.388Z,19.45
2023-03-11T12:24:59.782Z,27.88
2023-03-11T12:39:36.359Z,27.98
2023-03-11T12:42:23.329Z,30.60
2023-03-11T12:44:51.137Z,30.38
2023-03-11T12:47:24.401Z,31.75
2023-03-11T12:50:25.997Z,28.27
2023-03-11T12:53:01.875Z,18.90
2023-03-11T12:55:34.578Z,21.30
2023-03-11T12:58:16.789Z,23.38
2023-03-11T13:01:12.870Z,20.67
2023-03-11T13:03:50.365Z,15.40
2023-03-11T13:06:54.810Z,12.40
2023-03-11T13:09:22.149Z,12.07
2023-03-11T13:11:49.599Z,13.85
2023-03-11T13:14:31.716Z,12.48
2023-03-11T13:17:32.608Z,15.30
2023-03-11T13:20:11.251Z,13.00
2023-03-11T13:22:57.487Z,14.30
2023-03-11T13:25:54.165Z,16.40
2023-03-11T13:29:03.413Z,22.42
2023-03-11T13:31:51.448Z,30.80
2023-03-11T13:34:31.770Z,33.13
2023-03-11T13:40:47.138Z,23.17
2023-03-11T13:43:52.239Z,29.88
2023-03-11T13:46:36.052Z,34.53
2023-03-11T14:01:16.383Z,15.52
2023-03-11T14:03:59.324Z,15.40
2023-03-11T14:06:27.047Z,17.80
2023-03-11T14:08:57.476Z,23.58
2023-03-11T14:11:29.672Z,23.60
2023-03-11T14:14:02.166Z,19.05
2023-03-11T14:16:44.708Z,17.05
2023-03-11T14:19:29.393Z,12.15
2023-03-11T14:21:57.665Z,13.45
2023-03-11T14:24:30.854Z,15.85
2023-03-11T14:26:59.627Z,11.07
2023-03-11T14:29:53.419Z,9.25
2023-03-11T14:32:31.681Z,13.95
2023-03-11T14:34:59.162Z,13.63
2023-03-11T14:37:34.339Z,11.40
2023-03-11T14:40:01.616Z,8.38
2023-03-11T14:42:39.252Z,11.10
2023-03-11T14:45:08.573Z,9.77
2023-03-11T14:47:48.540Z,7.20
2023-03-11T14:50:21.120Z,7.60
2023-03-11T14:52:52.894Z,8.43
2023-03-11T14:55:29.001Z,8.18
2023-03-11T14:58:15.613Z,9.45
2023-03-11T15:01:26.881Z,9.15
2023-03-11T15:04:13.772Z,11.90
2023-03-11T15:06:45.405Z,11.43
2023-03-11T15:09:17.590Z,12.63
2023-03-11T15:12:01.704Z,13.93
2023-03-11T15:14:33.464Z,12.65
2023-03-11T15:17:54.508Z,12.70
2023-03-11T15:20:31.944Z,11.77
2023-03-11T15:23:04.683Z,14.70
2023-03-11T15:25:34.335Z,16.00
2023-03-11T15:28:24.594Z,19.38
2023-03-11T15:31:12.037Z,44.67
2023-03-11T15:33:39.204Z,38.60
2023-03-11T15:36:06.782Z,34.80
2023-03-11T15:38:33.914Z,28.30
2023-03-11T15:41:02.161Z,39.00
2023-03-11T15:43:32.631Z,42.35
2023-03-11T15:46:00.810Z,47.30
2023-03-11T15:48:30.148Z,41.58
2023-03-11T15:50:58.614Z,37.55
2023-03-11T15:53:26.517Z,30.85
2023-03-11T15:55:55.117Z,28.73
2023-03-11T15:58:22.355Z,28.63
2023-03-11T16:00:58.979Z,30.92
2023-03-11T16:03:26.318Z,30.73
2023-03-11T16:05:53.524Z,34.28
2023-03-11T16:08:20.879Z,37.17
2023-03-11T16:10:48.065Z,37.55
2023-03-11T16:13:15.546Z,46.75
2023-03-11T16:15:43.049Z,58.10
2023-03-11T16:18:10.674Z,66.72
2023-03-11T16:20:43.639Z,91.10
2023-03-11T16:23:19.390Z,88.55
2023-03-11T16:25:46.509Z,79.43
2023-03-11T16:28:14.256Z,72.15
2023-03-11T16:30:41.735Z,75.82
2023-03-11T16:33:08.904Z,61.88
2023-03-11T16:35:36.206Z,71.32
2023-03-11T16:38:03.303Z,72.75
2023-03-11T16:40:30.646Z,93.40
2023-03-11T16:43:02.407Z,78.82
2023-03-11T16:45:29.992Z,73.47
2023-03-11T16:47:57.385Z,66.53
2023-03-11T16:50:24.613Z,67.55
2023-03-11T16:52:52.860Z,65.03
2023-03-11T16:55:20.107Z,57.55
2023-03-11T16:57:47.308Z,55.25
2023-03-11T17:00:14.990Z,67.55
2023-03-11T17:02:42.071Z,61.42
2023-03-11T17:05:09.568Z,74.50
2023-03-11T17:07:39.291Z,87.03
2023-03-11T17:10:07.406Z,91.05
2023-03-11T17:12:34.985Z,121.18
2023-03-11T17:15:02.458Z,110.88
2023-03-11T17:17:31.139Z,82.80
2023-03-11T17:19:58.275Z,98.28
2023-03-11T17:22:26.718Z,116.47
2023-03-11T17:24:54.009Z,123.05
2023-03-11T17:27:32.840Z,115.35
2023-03-11T17:30:07.988Z,115.45
2023-03-11T17:32:38.144Z,129.88
2023-03-11T17:35:09.204Z,150.82
2023-03-11T17:37:38.623Z,141.70
2023-03-11T17:40:08.929Z,140.20
2023-03-11T17:42:39.381Z,136.50
2023-03-11T17:45:07.010Z,142.30
2023-03-11T17:47:34.914Z,173.45
2023-03-11T17:50:03.179Z,210.88
2023-03-11T17:52:30.424Z,197.05
2023-03-11T17:54:57.682Z,154.45
2023-03-11T17:57:24.875Z,120.93
2023-03-11T17:59:52.839Z,98.07
2023-03-11T18:02:20.268Z,121.00
2023-03-11T18:04:52.703Z,126.88
2023-03-11T18:07:23.836Z,121.45
2023-03-11T18:09:54.412Z,108.35
2023-03-11T18:14:48.626Z,85.40
2023-03-11T18:17:18.274Z,119.13
2023-03-11T18:19:45.734Z,167.63
2023-03-11T18:22:12.895Z,141.57
2023-03-11T18:24:39.990Z,89.78
2023-03-11T18:27:09.013Z,78.03
2023-03-11T18:29:36.214Z,158.75
2023-03-11T18:32:03.630Z,142.82
2023-03-11T18:34:31.766Z,128.32
2023-03-11T18:36:59.292Z,78.82
2023-03-11T18:39:26.664Z,63.75
2023-03-11T18:41:53.953Z,68.53
2023-03-11T18:44:21.776Z,93.68
2023-03-11T18:46:48.951Z,122.32
2023-03-11T18:49:16.131Z,171.98
2023-03-11T18:51:43.482Z,226.48
2023-03-11T18:54:11.183Z,186.70
2023-03-11T18:56:38.530Z,191.90
2023-03-11T18:59:05.794Z,149.13
2023-03-11T19:01:34.727Z,124.28
2023-03-11T19:04:02.176Z,112.85
2023-03-11T19:06:29.454Z,138.00
2023-03-11T19:08:57.998Z,141.80
2023-03-11T19:11:30.993Z,127.45
2023-03-11T19:14:00.869Z,141.02
2023-03-11T19:16:30.083Z,148.73
2023-03-11T19:18:57.497Z,124.63
2023-03-11T19:21:26.113Z,117.47
2023-03-11T19:23:55.549Z,104.18
2023-03-11T19:26:33.699Z,114.63
2023-03-11T19:29:05.307Z,101.22
2023-03-11T19:31:32.509Z,102.30
2023-03-11T19:33:59.890Z,114.72
2023-03-11T19:36:27.810Z,121.38
2023-03-11T19:38:55.084Z,128.65
2023-03-11T19:41:23.871Z,112.55
2023-03-11T19:43:54.219Z,118.43
2023-03-11T19:46:21.991Z,114.68
2023-03-11T19:48:56.907Z,124.55
2023-03-11T19:51:26.622Z,98.70
2023-03-11T19:53:55.560Z,102.05
2023-03-11T19:56:22.709Z,99.97
2023-03-11T19:58:50.102Z,109.38
2023-03-11T20:01:22.602Z,98.40
2023-03-11T20:03:49.831Z,111.95
2023-03-11T20:06:19.012Z,136.90
2023-03-11T20:08:47.892Z,120.20
2023-03-11T20:11:17.506Z,126.15
2023-03-11T20:13:44.792Z,104.80
2023-03-11T20:16:18.765Z,95.35
2023-03-11T20:19:01.642Z,94.68
2023-03-11T20:21:29.285Z,99.80
2023-03-11T20:23:56.802Z,90.72
2023-03-11T20:26:24.422Z,132.05
2023-03-11T20:28:55.262Z,123.00
2023-03-11T20:31:23.675Z,147.13
2023-03-11T20:33:53.205Z,139.98
2023-03-11T20:36:23.401Z,125.72
2023-03-11T20:38:51.733Z,132.45
2023-03-11T20:41:19.475Z,129.25
2023-03-11T20:43:47.036Z,92.63
2023-03-11T20:46:15.873Z,78.03
2023-03-11T20:48:43.090Z,84.95
2023-03-11T20:51:15.019Z,85.95
2023-03-11T20:53:42.870Z,65.30
2023-03-11T20:56:12.643Z,55.30
2023-03-11T20:58:40.064Z,80.90
2023-03-11T21:01:14.686Z,135.38
2023-03-11T21:03:42.795Z,145.80
2023-03-11T21:06:20.826Z,129.60
2023-03-11T21:08:49.436Z,118.80
2023-03-11T21:11:16.926Z,144.73
2023-03-11T21:13:44.226Z,134.75
2023-03-11T21:16:11.684Z,121.10
2023-03-11T21:18:39.273Z,71.20
2023-03-11T21:21:08.613Z,74.88
2023-03-11T21:23:36.137Z,69.47
2023-03-11T21:26:04.496Z,105.90
2023-03-11T21:28:36.412Z,99.10
2023-03-11T21:31:07.289Z,95.03
2023-03-11T21:33:34.582Z,107.45
2023-03-11T21:36:02.605Z,93.03
2023-03-11T21:38:35.251Z,93.95
2023-03-11T21:41:08.025Z,138.60
2023-03-11T21:43:37.086Z,117.63
2023-03-11T21:46:05.430Z,120.07
2023-03-11T21:48:33.271Z,135.52
2023-03-11T21:51:01.089Z,126.85
2023-03-11T21:53:28.923Z,120.32
2023-03-11T21:55:56.171Z,146.82
2023-03-11T21:58:24.017Z,133.27
2023-03-11T22:00:51.525Z,135.50
2023-03-11T22:03:19.694Z,161.07
2023-03-11T22:05:50.754Z,153.35
2023-03-11T22:08:18.283Z,131.50
2023-03-11T22:10:45.570Z,151.88
2023-03-11T22:13:12.756Z,151.00
2023-03-11T22:15:40.162Z,148.77
2023-03-11T22:18:07.592Z,139.05
2023-03-11T22:20:34.866Z,145.15
2023-03-11T22:23:02.681Z,149.48
2023-03-11T22:25:32.681Z,151.73
2023-03-11T22:27:59.921Z,155.55
2023-03-11T22:30:27.787Z,181.77
2023-03-11T22:32:55.024Z,186.02
2023-03-11T22:35:22.456Z,158.32
2023-03-11T22:37:49.659Z,178.55
2023-03-11T22:40:16.944Z,178.57
2023-03-11T22:42:44.199Z,173.38
2023-03-11T22:45:11.862Z,143.35
2023-03-11T22:47:39.164Z,145.88
2023-03-11T22:50:09.250Z,131.35
2023-03-11T22:52:36.699Z,125.05
2023-03-11T22:55:04.900Z,118.15
2023-03-11T22:57:38.941Z,145.75
2023-03-11T23:00:17.448Z,141.50
2023-03-11T23:02:48.860Z,128.98
2023-03-11T23:05:15.986Z,127.38
2023-03-11T23:07:43.472Z,108.38
2023-03-11T23:10:11.903Z,100.85
2023-03-11T23:12:39.134Z,101.95
2023-03-11T23:15:12.379Z,99.22
2023-03-11T23:17:39.536Z,117.13
2023-03-11T23:20:08.051Z,121.22
2023-03-11T23:22:36.064Z,120.70
2023-03-11T23:25:04.892Z,125.88
2023-03-11T23:27:38.038Z,126.53
2023-03-11T23:30:11.896Z,137.23
2023-03-11T23:32:39.219Z,128.68
2023-03-11T23:35:06.821Z,127.75
2023-03-11T23:37:33.969Z,117.80
2023-03-11T23:40:01.056Z,125.15
2023-03-11T23:42:28.444Z,118.82
2023-03-11T23:44:56.530Z,116.55
2023-03-11T23:47:23.769Z,116.55
2023-03-11T23:49:50.913Z,115.60
2023-03-11T23:52:20.389Z,125.07
2023-03-11T23:54:47.684Z,123.70
2023-03-11T23:57:17.366Z,112.93
2023-03-11T23:59:44.597Z,113.53
